Time;durP1;ratioP1;P1;durP2;ratioP2;P2;SDS_P1;SDS_P2;PMS_P1;PMS_P2;Temp;Humidity;BMP_temperature;BMP_pressure;BME280_temperature;BME280_humidity;BME280_pressure;Samples;Min_cycle;Max_cycle;Signal;HPM_P1;HPM_P2
2021/11/16 00:04:25;;;;;;;23.95;14.55;;;;;;;5.90;86.97;102655.44;10142257;28;20037;-68
2021/11/16 00:09:21;;;;;;;26.70;15.57;;;;;;;5.85;86.66;102641.75;10149246;28;20096;-68
2021/11/16 00:14:18;;;;;;;25.73;15.48;;;;;;;5.93;86.56;102637.84;10161180;28;20033;-68
2021/11/16 00:19:16;;;;;;;26.38;14.50;;;;;;;5.95;86.54;102636.56;10176141;28;20132;-67
2021/11/16 00:24:14;;;;;;;27.08;14.95;;;;;;;5.97;87.07;102633.63;10166674;28;20037;-68
2021/11/16 00:29:12;;;;;;;28.95;16.70;;;;;;;5.94;87.31;102640.34;10163915;28;20100;-68
2021/11/16 00:34:08;;;;;;;27.98;16.05;;;;;;;5.80;88.01;102639.75;10156545;28;20038;-67
2021/11/16 00:39:05;;;;;;;28.95;15.50;;;;;;;5.95;88.09;102622.97;10157638;28;20137;-67
2021/11/16 00:44:01;;;;;;;27.38;15.48;;;;;;;5.95;88.17;102620.28;10154693;28;20054;-67
2021/11/16 00:48:58;;;;;;;27.98;17.00;;;;;;;5.98;88.21;102606.19;10158917;28;20082;-68
2021/11/16 00:53:54;;;;;;;34.58;17.40;;;;;;;5.87;88.14;102604.31;10147489;28;20077;-68
2021/11/16 00:58:51;;;;;;;30.90;18.52;;;;;;;5.86;89.35;102614.34;10159939;28;20594;-68
2021/11/16 01:03:48;;;;;;;35.67;18.52;;;;;;;5.90;88.81;102612.00;10155096;28;20046;-68
2021/11/16 01:08:44;;;;;;;31.95;17.52;;;;;;;5.94;89.28;102613.19;10146230;28;20070;-68
2021/11/16 01:13:41;;;;;;;30.30;17.05;;;;;;;5.89;89.41;102607.59;10143174;28;20070;-68
2021/11/16 01:18:37;;;;;;;31.80;18.67;;;;;;;5.93;88.44;102606.06;10162378;28;20096;-68
2021/11/16 01:23:34;;;;;;;32.63;16.88;;;;;;;5.78;89.03;102598.44;10156917;28;20046;-68
2021/11/16 01:28:31;;;;;;;31.90;17.75;;;;;;;5.84;89.31;102591.22;10168662;28;20050;-68
2021/11/16 01:33:40;;;;;;;30.55;16.90;;;;;;;5.76;90.03;102595.16;10169990;28;20038;-67
2021/11/16 01:38:38;;;;;;;32.05;19.45;;;;;;;5.87;90.76;102593.44;10139947;28;20045;-68
2021/11/16 01:43:35;;;;;;;32.35;18.33;;;;;;;5.81;90.46;102597.16;10158848;28;20560;-68
2021/11/16 01:48:33;;;;;;;32.72;19.20;;;;;;;5.81;90.92;102587.09;10163664;28;20080;-67
2021/11/16 01:53:30;;;;;;;34.97;19.25;;;;;;;5.83;90.15;102578.72;10143900;28;20544;-68
2021/11/16 01:58:27;;;;;;;36.78;18.75;;;;;;;5.73;90.23;102578.50;10147247;28;20073;-68
2021/11/16 02:03:24;;;;;;;37.03;20.50;;;;;;;5.87;90.79;102569.00;10145814;28;20129;-67
2021/11/16 02:08:22;;;;;;;35.97;21.13;;;;;;;5.82;91.59;102571.63;10154760;28;20045;-68
2021/11/16 02:13:22;;;;;;;38.42;20.38;;;;;;;5.85;91.10;102566.56;10154296;28;20484;-68
2021/11/16 02:18:19;;;;;;;36.20;19.70;;;;;;;5.89;91.61;102569.59;10148011;28;20058;-68
2021/11/16 02:23:17;;;;;;;35.50;19.67;;;;;;;5.87;91.45;102558.16;10152504;28;20047;-68
2021/11/16 02:28:18;;;;;;;40.28;20.27;;;;;;;5.91;90.94;102537.59;10149927;28;20067;-68
2021/11/16 02:33:16;;;;;;;39.72;21.02;;;;;;;5.96;90.32;102532.31;10168318;28;20096;-67
2021/11/16 02:38:13;;;;;;;39.45;20.05;;;;;;;5.91;90.57;102527.56;10151058;28;20046;-68
2021/11/16 02:43:10;;;;;;;37.80;20.52;;;;;;;5.78;90.59;102527.03;10159928;28;20046;-67
2021/11/16 02:48:13;;;;;;;40.05;20.77;;;;;;;5.85;90.87;102517.69;10149637;28;20046;-67
2021/11/16 02:53:10;;;;;;;36.15;20.33;;;;;;;5.83;90.80;102514.41;10143509;28;21069;-68
2021/11/16 02:58:07;;;;;;;34.97;21.35;;;;;;;5.79;89.90;102501.53;10149849;28;20116;-68
2021/11/16 03:03:03;;;;;;;38.85;21.63;;;;;;;5.80;89.99;102508.63;10139918;28;20651;-67
2021/11/16 03:08:01;;;;;;;41.40;22.05;;;;;;;5.70;90.21;102520.91;10150266;28;20086;-68
2021/11/16 03:12:58;;;;;;;37.13;20.05;;;;;;;5.49;90.47;102518.84;10154058;28;20046;-68
2021/11/16 03:17:54;;;;;;;37.95;21.50;;;;;;;5.62;90.62;102507.75;10164001;28;20108;-68
2021/11/16 03:22:57;;;;;;;35.42;19.33;;;;;;;5.66;89.65;102503.50;10136563;28;20420;-68
2021/11/16 03:27:58;;;;;;;41.57;22.80;;;;;;;5.75;89.92;102509.34;10160748;28;20055;-68
2021/11/16 03:32:54;;;;;;;39.92;21.98;;;;;;;5.70;90.63;102504.63;10169203;28;20504;-67
2021/11/16 03:37:57;;;;;;;39.78;22.15;;;;;;;5.69;90.59;102503.00;10173528;28;20042;-68
2021/11/16 03:42:54;;;;;;;37.75;20.65;;;;;;;5.70;91.57;102498.38;10168951;28;20038;-68
2021/11/16 03:47:51;;;;;;;41.97;23.10;;;;;;;5.56;92.11;102492.41;10166477;28;20112;-68
2021/11/16 03:52:54;;;;;;;42.72;22.75;;;;;;;5.60;92.26;102488.16;10157521;28;20046;-68
2021/11/16 03:57:54;;;;;;;38.30;20.70;;;;;;;5.63;92.42;102487.66;10163197;28;20085;-67
2021/11/16 04:02:51;;;;;;;41.28;23.50;;;;;;;5.66;91.08;102484.50;10169917;28;20066;-68
2021/11/16 04:07:47;;;;;;;39.20;21.98;;;;;;;5.58;91.17;102474.00;10150454;28;20393;-68
2021/11/16 04:12:45;;;;;;;43.60;23.75;;;;;;;5.60;92.16;102471.88;10156474;28;20078;-68
2021/11/16 04:17:43;;;;;;;47.10;24.52;;;;;;;5.61;92.38;102473.50;10142327;28;20046;-68
2021/11/16 04:22:40;;;;;;;48.25;23.70;;;;;;;5.67;92.57;102483.41;10155386;28;20038;-68
2021/11/16 04:27:37;;;;;;;43.45;24.02;;;;;;;5.62;92.65;102477.88;10170619;28;20499;-67
2021/11/16 04:32:33;;;;;;;37.88;22.08;;;;;;;5.56;91.62;102470.69;10167468;28;20492;-68
2021/11/16 04:37:30;;;;;;;42.45;23.15;;;;;;;5.58;92.34;102468.56;10170269;28;20050;-68
2021/11/16 04:42:27;;;;;;;41.00;23.10;;;;;;;5.68;92.10;102471.47;10155500;28;20100;-67
2021/11/16 04:47:37;;;;;;;39.22;22.15;;;;;;;5.63;90.79;102463.25;10159206;28;20486;-68
2021/11/16 04:53:05;;;;;;;36.53;18.98;;;;;;;5.61;89.91;102462.66;10154557;28;20046;-68
2021/11/16 05:03:25;;;;;;;33.60;20.33;;;;;;;5.65;88.80;102455.69;10155541;28;20113;-68
2021/11/16 05:08:22;;;;;;;36.92;21.23;;;;;;;5.67;89.08;102461.69;10159640;28;20070;-68
2021/11/16 05:13:18;;;;;;;36.83;20.95;;;;;;;5.67;89.09;102450.84;10158169;28;20408;-68
2021/11/16 05:18:15;;;;;;;38.03;21.27;;;;;;;5.63;89.13;102444.25;10162693;28;20091;-68
2021/11/16 05:23:12;;;;;;;39.35;21.50;;;;;;;5.67;89.34;102444.59;10157428;28;20552;-67
2021/11/16 05:28:09;;;;;;;34.92;20.75;;;;;;;5.66;89.04;102438.34;10164258;28;20074;-67
2021/11/16 05:33:05;;;;;;;34.35;20.38;;;;;;;5.69;88.96;102437.84;10163197;28;20455;-68
2021/11/16 05:38:02;;;;;;;35.17;19.58;;;;;;;5.64;87.88;102434.22;10171834;28;20073;-68
2021/11/16 05:42:59;;;;;;;29.65;17.52;;;;;;;5.61;87.33;102435.53;10156231;28;20042;-68
2021/11/16 05:47:56;;;;;;;34.05;18.00;;;;;;;5.47;87.35;102445.84;10167832;28;20085;-68
2021/11/16 05:52:53;;;;;;;29.55;17.45;;;;;;;5.59;86.86;102453.97;10158514;28;20516;-67
2021/11/16 05:57:50;;;;;;;33.28;19.20;;;;;;;5.64;86.85;102456.75;10144235;28;20476;-68
2021/11/16 06:02:48;;;;;;;31.48;18.25;;;;;;;5.56;87.23;102470.69;10153748;28;20078;-67
2021/11/16 06:07:44;;;;;;;30.85;18.00;;;;;;;5.59;86.44;102462.09;10151330;28;20503;-68
2021/11/16 06:12:41;;;;;;;31.58;18.65;;;;;;;5.60;86.06;102455.59;10151221;28;20043;-67
2021/11/16 06:17:44;;;;;;;31.67;19.05;;;;;;;5.67;86.84;102450.84;10151838;28;20050;-67
2021/11/16 06:22:41;;;;;;;;;;;;;;;5.72;87.08;102457.44;10146838;28;20046;-67
2021/11/16 06:27:38;;;;;;;34.42;19.85;;;;;;;5.70;87.30;102460.38;10159325;28;19925;-68
2021/11/16 06:32:34;;;;;;;32.95;19.58;;;;;;;5.73;86.14;102465.31;10165563;28;20100;-68
2021/11/16 06:37:31;;;;;;;35.92;19.77;;;;;;;5.64;85.76;102456.75;10156318;28;20137;-68
2021/11/16 06:42:27;;;;;;;33.53;18.95;;;;;;;5.69;85.52;102465.00;10154015;28;20041;-68
2021/11/16 06:47:24;;;;;;;28.85;18.15;;;;;;;5.74;86.57;102466.16;10157985;28;20077;-69
2021/11/16 06:52:21;;;;;;;31.73;18.90;;;;;;;5.68;86.02;102452.47;10168369;28;20093;-68
2021/11/16 06:57:18;;;;;;;33.83;21.10;;;;;;;5.71;86.44;102467.47;10167196;28;20046;-68
2021/11/16 07:02:14;;;;;;;31.80;20.00;;;;;;;5.65;86.44;102458.41;10170604;28;20105;-68
2021/11/16 07:07:11;;;;;;;37.25;20.88;;;;;;;5.62;85.79;102453.47;10167820;28;20692;-68
2021/11/16 07:12:13;;;;;;;34.35;19.33;;;;;;;5.64;85.74;102451.34;10146007;28;20550;-68
2021/11/16 07:17:13;;;;;;;29.67;18.00;;;;;;;5.60;85.67;102454.78;10150334;28;20072;-68
2021/11/16 07:22:14;;;;;;;35.95;19.88;;;;;;;5.58;85.71;102463.16;10162453;28;20046;-68
2021/11/16 07:27:12;;;;;;;31.38;17.98;;;;;;;5.56;85.70;102459.84;10166469;28;20088;-68
2021/11/16 07:32:15;;;;;;;38.42;21.58;;;;;;;5.70;86.06;102455.78;10164354;28;20084;-68
2021/11/16 07:37:16;;;;;;;35.78;21.35;;;;;;;5.67;86.24;102456.28;10167094;28;20515;-67
2021/11/16 07:42:12;;;;;;;38.50;21.42;;;;;;;5.66;86.12;102454.63;10165149;28;20094;-68
2021/11/16 07:47:09;;;;;;;36.80;23.58;;;;;;;5.63;86.88;102449.66;10165935;28;20478;-68
2021/11/16 07:52:07;;;;;;;38.80;23.02;;;;;;;5.68;86.48;102452.47;10169626;28;20045;-68
2021/11/16 07:57:05;;;;;;;34.22;18.48;;;;;;;5.74;86.70;102449.88;10155443;28;20104;-68
2021/11/16 08:02:07;;;;;;;39.00;22.48;;;;;;;5.76;86.55;102443.16;10164712;28;20073;-68
2021/11/16 08:17:14;;;;;;;39.72;22.30;;;;;;;5.74;86.59;102449.88;10137095;28;20050;-68
2021/11/16 08:22:19;;;;;;;41.17;22.65;;;;;;;5.76;85.79;102442.31;10173835;28;20050;-68
2021/11/16 08:27:30;;;;;;;39.28;22.23;;;;;;;5.72;85.86;102431.13;10158920;28;20054;-67
2021/11/16 08:32:34;;;;;;;40.17;24.25;;;;;;;5.61;86.63;102434.69;10164848;28;20042;-68
2021/11/16 08:37:36;;;;;;;39.03;22.80;;;;;;;5.73;86.15;102431.94;10159510;28;20326;-68
2021/11/16 08:42:45;;;;;;;40.70;23.83;;;;;;;5.59;86.23;102434.97;10167530;28;20491;-68
2021/11/16 08:47:50;;;;;;;42.85;23.98;;;;;;;5.66;86.43;102438.34;10171852;28;20575;-68
2021/11/16 08:52:47;;;;;;;45.45;23.98;;;;;;;5.69;86.42;102440.56;10166501;28;20047;-67
2021/11/16 08:57:46;;;;;;;40.83;24.27;;;;;;;5.67;86.64;102434.56;10167745;28;20054;-68
2021/11/16 09:02:43;;;;;;;45.03;23.17;;;;;;;5.72;86.54;102427.59;10174586;28;20069;-68
2021/11/16 09:07:48;;;;;;;42.97;24.48;;;;;;;5.71;87.82;102418.63;10154631;28;20428;-68
2021/11/16 09:12:52;;;;;;;39.47;23.10;;;;;;;5.76;87.42;102420.63;10146430;28;20073;-68
2021/11/16 09:18:06;;;;;;;45.83;24.88;;;;;;;5.76;87.38;102415.19;10147015;28;20493;-68
2021/11/16 09:23:03;;;;;;;43.83;24.45;;;;;;;5.76;87.59;102420.63;10143168;28;20462;-68
2021/11/16 09:28:11;;;;;;;48.65;27.23;;;;;;;5.81;88.09;102417.97;10159993;28;20047;-67
2021/11/16 09:33:12;;;;;;;46.03;26.38;;;;;;;5.83;88.31;102418.56;10158743;28;20050;-68
2021/11/16 09:38:10;;;;;;;44.92;24.33;;;;;;;5.83;88.19;102405.81;10158976;28;20049;-67
2021/11/16 09:43:08;;;;;;;53.10;26.95;;;;;;;5.81;88.85;102401.69;10170000;28;20503;-68
2021/11/16 09:48:05;;;;;;;54.00;29.23;;;;;;;5.78;88.78;102404.88;10167438;28;20463;-68
2021/11/16 09:53:03;;;;;;;47.47;25.48;;;;;;;5.55;90.24;102398.53;10162067;28;20069;-68
2021/11/16 09:58:05;;;;;;;45.30;25.40;;;;;;;5.65;90.27;102393.28;10156880;28;20092;-68
2021/11/16 10:03:08;;;;;;;49.43;26.27;;;;;;;5.73;90.09;102393.94;10156536;28;20041;-68
2021/11/16 10:08:06;;;;;;;50.00;27.67;;;;;;;5.81;89.92;102390.84;10162501;28;20049;-67
2021/11/16 10:13:07;;;;;;;51.38;26.33;;;;;;;5.75;89.78;102378.22;10141418;28;20064;-68
2021/11/16 10:18:05;;;;;;;52.25;26.85;;;;;;;5.80;90.10;102373.75;10131768;28;20073;-68
2021/11/16 10:23:08;;;;;;;49.00;26.13;;;;;;;5.79;90.28;102363.13;10142699;28;20045;-68
2021/11/16 10:28:09;;;;;;;57.97;28.70;;;;;;;5.76;91.32;102350.03;10154243;28;20076;-68
2021/11/16 10:33:24;;;;;;;50.67;26.00;;;;;;;5.70;91.75;102340.97;10157031;28;20113;-67
2021/11/16 10:38:22;;;;;;;53.33;27.48;;;;;;;5.76;92.46;102344.63;10158356;28;20047;-69
2021/11/16 10:43:19;;;;;;;53.53;28.05;;;;;;;5.73;93.25;102339.66;10157109;28;20464;-68
2021/11/16 10:48:19;;;;;;;56.83;28.35;;;;;;;5.73;93.76;102320.66;10161918;28;20058;-67
2021/11/16 10:53:20;;;;;;;56.13;28.85;;;;;;;5.82;93.33;102324.63;10160065;28;20132;-67
2021/11/16 10:58:19;;;;;;;53.20;27.98;;;;;;;5.77;93.86;102324.53;10145915;28;20492;-67
2021/11/16 11:03:17;;;;;;;54.35;26.85;;;;;;;5.80;94.07;102307.75;10152286;28;20050;-68
2021/11/16 11:08:37;;;;;;;55.58;28.67;;;;;;;5.78;94.74;102293.59;10153746;28;20069;-68
2021/11/16 11:13:35;;;;;;;57.35;28.48;;;;;;;5.74;94.90;102293.28;10160401;28;20054;-67
2021/11/16 11:18:40;;;;;;;59.25;30.15;;;;;;;5.79;95.37;102276.25;10144282;28;20042;-67
2021/11/16 11:23:45;;;;;;;54.75;27.92;;;;;;;5.79;95.74;102270.81;10157638;28;20073;-68
2021/11/16 11:28:42;;;;;;;55.78;28.15;;;;;;;5.77;95.67;102267.53;10153246;28;20141;-68
2021/11/16 11:33:49;;;;;;;58.75;28.83;;;;;;;5.75;96.79;102256.09;10147383;28;20586;-68
2021/11/16 11:38:46;;;;;;;52.33;27.58;;;;;;;5.72;96.30;102256.59;10149208;28;20061;-68
2021/11/16 11:43:43;;;;;;;62.40;30.38;;;;;;;5.80;96.80;102267.88;10161279;28;20082;-67
2021/11/16 11:48:39;;;;;;;53.65;26.27;;;;;;;5.81;96.36;102257.84;10176456;28;20054;-69
2021/11/16 11:53:36;;;;;;;53.67;27.67;;;;;;;5.59;97.06;102253.16;10145239;28;20046;-67
2021/11/16 11:58:36;;;;;;;60.33;30.80;;;;;;;5.79;97.58;102258.06;10162289;28;20038;-67
2021/11/16 12:03:36;;;;;;;61.08;28.70;;;;;;;5.86;97.79;102241.63;10169543;28;20459;-68
2021/11/16 12:08:32;;;;;;;49.33;25.95;;;;;;;5.88;96.89;102244.91;10160196;28;20145;-68
2021/11/16 12:13:32;;;;;;;49.20;25.80;;;;;;;5.88;96.14;102239.47;10161051;28;20073;-68
2021/11/16 12:18:38;;;;;;;52.10;27.13;;;;;;;5.84;95.92;102235.63;10154443;28;20132;-68
2021/11/16 12:23:45;;;;;;;49.70;24.95;;;;;;;5.80;95.43;102237.16;10151917;28;20136;-68
2021/11/16 12:28:42;;;;;;;49.80;24.48;;;;;;;5.72;95.66;102224.03;10140985;28;20050;-68
2021/11/16 12:33:44;;;;;;;46.60;24.25;;;;;;;5.81;94.94;102223.38;10157035;28;20101;-68
2021/11/16 12:38:47;;;;;;;47.67;24.90;;;;;;;5.81;96.41;102217.13;10146275;28;20508;-67
2021/11/16 12:43:47;;;;;;;46.03;24.17;;;;;;;5.73;96.98;102204.78;10159989;28;20476;-68
2021/11/16 12:48:51;;;;;;;29.48;15.30;;;;;;;5.68;94.70;102210.94;10180720;28;20532;-68
2021/11/16 12:54:02;;;;;;;29.95;15.80;;;;;;;5.77;94.29;102205.09;10170466;28;20093;-68
2021/11/16 12:58:59;;;;;;;35.45;17.77;;;;;;;5.78;93.25;102206.75;10155864;28;20050;-68
2021/11/16 13:03:57;;;;;;;33.42;17.58;;;;;;;5.68;93.31;102200.09;10157809;28;20137;-68
2021/11/16 13:08:53;;;;;;;34.67;16.92;;;;;;;5.80;92.75;102204.59;10156269;28;20112;-67
2021/11/16 13:13:50;;;;;;;30.48;15.80;;;;;;;5.78;93.30;102199.44;10148235;28;20599;-68
2021/11/16 13:18:55;;;;;;;35.03;18.23;;;;;;;5.76;93.92;102192.63;10153552;28;20109;-69
2021/11/16 13:23:54;;;;;;;34.90;16.67;;;;;;;5.76;93.32;102187.19;10153926;28;20630;-67
2021/11/16 13:34:03;;;;;;;32.67;16.58;;;;;;;5.80;93.23;102172.03;10158614;28;20084;-67
2021/11/16 13:39:04;;;;;;;35.47;16.85;;;;;;;5.78;93.44;102157.88;10167968;28;20121;-67
2021/11/16 13:44:14;;;;;;;34.17;16.83;;;;;;;5.70;94.06;102154.53;10156681;28;20065;-68
2021/11/16 13:49:17;;;;;;;29.70;15.65;;;;;;;5.69;93.41;102150.19;10164049;28;20045;-68
2021/11/16 13:54:14;;;;;;;;;;;;;;;5.77;93.34;102151.63;10174145;28;20046;-67
2021/11/16 13:59:20;;;;;;;31.00;15.65;;;;;;;5.72;94.38;102150.75;10148468;28;19979;-67
2021/11/16 14:04:19;;;;;;;37.60;18.55;;;;;;;5.74;95.51;102141.28;10152339;28;20074;-68
2021/11/16 14:09:23;;;;;;;37.40;20.17;;;;;;;5.64;96.10;102141.97;10161722;28;20084;-67
2021/11/16 14:14:21;;;;;;;37.30;19.40;;;;;;;5.68;94.88;102131.44;10156812;28;20138;-68
2021/11/16 14:19:20;;;;;;;35.83;18.70;;;;;;;5.72;95.89;102137.19;10154574;28;20561;-68
2021/11/16 14:24:46;;;;;;;36.28;19.15;;;;;;;5.75;96.08;102137.50;10151766;28;20092;-68
2021/11/16 14:30:07;;;;;;;38.13;18.73;;;;;;;5.77;96.37;102123.69;10141043;28;20051;-68
2021/11/16 14:35:18;;;;;;;37.25;20.25;;;;;;;5.71;96.80;102114.66;10146810;28;20488;-69
2021/11/16 14:40:19;;;;;;;35.10;19.63;;;;;;;5.78;96.03;102106.31;10139774;28;20053;-67
2021/11/16 14:45:16;;;;;;;35.60;19.92;;;;;;;5.82;96.35;102105.56;10139484;28;20045;-68
2021/11/16 14:50:23;;;;;;;33.58;18.48;;;;;;;5.79;96.19;102088.97;10132022;28;20142;-68
2021/11/16 14:55:20;;;;;;;40.88;22.02;;;;;;;5.79;96.44;102086.25;10143148;28;20641;-67
2021/11/16 15:00:33;;;;;;;36.28;18.70;;;;;;;5.69;97.25;102079.63;10150031;28;20078;-68
2021/11/16 15:05:31;;;;;;;34.03;19.25;;;;;;;5.74;95.89;102076.16;10147856;28;20038;-68
2021/11/16 15:10:28;;;;;;;39.05;18.48;;;;;;;5.68;96.88;102072.53;10147428;28;20043;-68
2021/11/16 15:15:33;;;;;;;37.97;19.75;;;;;;;5.65;96.45;102078.47;10157686;28;20042;-68
2021/11/16 15:20:40;;;;;;;37.10;20.08;;;;;;;5.68;96.58;102077.97;10148737;28;20071;-68
2021/11/16 15:25:48;;;;;;;36.65;18.67;;;;;;;5.56;96.85;102085.41;10166583;28;20042;-68
2021/11/16 15:31:00;;;;;;;37.25;18.20;;;;;;;5.66;96.31;102080.16;10158913;28;20488;-67
2021/11/16 15:36:12;;;;;;;39.88;19.92;;;;;;;5.64;96.60;102076.00;10171022;28;20085;-68
2021/11/16 15:41:17;;;;;;;36.30;18.80;;;;;;;5.69;96.68;102082.34;10178813;28;20042;-68
2021/11/16 15:57:36;;;;;;;33.10;17.83;;;;;;;5.74;97.07;102059.06;10170097;28;20394;-67
2021/11/16 16:02:32;;;;;;;37.97;18.77;;;;;;;5.72;96.53;102062.03;10159795;28;20632;-67
2021/11/16 16:07:30;;;;;;;34.20;18.92;;;;;;;5.70;96.79;102054.13;10162571;28;20130;-67
2021/11/16 16:12:27;;;;;;;40.47;19.17;;;;;;;5.76;96.51;102048.78;10166034;28;20043;-67
2021/11/16 16:17:33;;;;;;;42.15;22.77;;;;;;;5.74;96.39;102042.78;10151767;28;20846;-67
2021/11/16 16:22:41;;;;;;;32.20;18.08;;;;;;;5.69;95.77;102047.06;10155173;28;20037;-67
2021/11/16 16:27:38;;;;;;;33.83;18.05;;;;;;;5.53;95.58;102042.50;10162796;28;20046;-67
2021/11/16 16:32:36;;;;;;;32.13;18.52;;;;;;;5.64;95.57;102048.88;10164125;28;20038;-67
2021/11/16 16:37:33;;;;;;;35.80;17.92;;;;;;;5.61;95.97;102036.63;10162702;28;20140;-67
2021/11/16 16:42:30;;;;;;;38.72;17.95;;;;;;;5.64;96.41;102044.28;10170541;28;20693;-67
2021/11/16 16:47:27;;;;;;;36.53;19.27;;;;;;;5.68;96.08;102045.41;10171043;28;20096;-68
2021/11/16 16:52:24;;;;;;;33.92;18.55;;;;;;;5.64;95.93;102038.88;10166867;28;20585;-68
2021/11/16 16:57:21;;;;;;;30.38;17.02;;;;;;;5.61;95.65;102050.19;10159755;28;20050;-68
2021/11/16 17:02:18;;;;;;;32.95;17.77;;;;;;;5.59;95.23;102038.81;10167428;28;20096;-67
2021/11/16 17:07:16;;;;;;;33.75;17.77;;;;;;;5.63;95.42;102037.22;10163480;28;20042;-68
2021/11/16 17:12:15;;;;;;;34.20;18.17;;;;;;;5.63;95.45;102041.81;10143693;28;20046;-68
2021/11/16 17:17:13;;;;;;;30.85;18.80;;;;;;;5.67;95.32;102049.22;10156387;28;20046;-68
2021/11/16 17:22:10;;;;;;;36.08;18.50;;;;;;;5.65;94.96;102040.50;10152508;28;20042;-69
2021/11/16 17:27:09;;;;;;;33.47;18.15;;;;;;;5.62;95.10;102032.88;10158805;28;20045;-68
2021/11/16 17:32:07;;;;;;;30.00;15.75;;;;;;;5.50;94.97;102032.19;10176010;28;20084;-67
2021/11/16 17:37:03;;;;;;;31.67;15.95;;;;;;;5.37;95.75;102035.25;10161678;28;20513;-68
2021/11/16 17:42:01;;;;;;;29.55;16.08;;;;;;;5.39;95.28;102024.97;10168628;28;20902;-68
2021/11/16 17:46:59;;;;;;;30.52;15.90;;;;;;;5.39;95.83;102033.13;10150638;28;20092;-68
2021/11/16 17:51:58;;;;;;;28.80;14.57;;;;;;;5.38;95.89;102023.31;10169745;28;20048;-67
2021/11/16 17:56:58;;;;;;;30.25;15.43;;;;;;;5.42;95.90;102029.88;10164726;28;20045;-68
2021/11/16 18:01:55;;;;;;;31.52;16.25;;;;;;;5.46;96.01;102026.41;10158454;28;20510;-67
2021/11/16 18:11:49;;;;;;;27.10;14.93;;;;;;;5.36;95.76;102020.03;10145417;28;20097;-67
2021/11/16 18:16:46;;;;;;;33.45;15.32;;;;;;;5.35;95.74;102005.66;10133130;28;20065;-67
2021/11/16 18:21:44;;;;;;;32.75;15.32;;;;;;;5.39;97.04;102009.50;10130762;28;20426;-68
2021/11/16 18:26:46;;;;;;;23.50;12.93;;;;;;;5.41;96.43;102006.56;10142804;28;20113;-67
2021/11/16 18:31:43;;;;;;;32.10;15.80;;;;;;;5.37;96.71;102006.22;10155480;28;20093;-67
2021/11/16 18:36:46;;;;;;;27.88;14.85;;;;;;;5.42;96.00;102002.75;10164178;28;20044;-68
2021/11/16 18:46:46;;;;;;;23.42;13.13;;;;;;;5.33;96.65;102009.69;10155092;28;20048;-68
2021/11/16 18:51:44;;;;;;;26.17;13.60;;;;;;;5.27;96.01;101990.66;10158347;28;20068;-68
2021/11/16 18:57:27;;;;;;;34.70;19.02;;;;;;;5.26;96.42;101991.69;10156374;28;20073;-68
2021/11/16 19:01:59;;;;;;;25.92;13.73;;;;;;;5.17;96.27;101993.19;10160971;28;20201;-68
2021/11/16 19:06:56;;;;;;;23.92;13.13;;;;;;;5.28;96.62;101989.56;10156944;28;20042;-67
2021/11/16 19:11:55;;;;;;;31.15;16.63;;;;;;;5.30;95.86;102000.16;10163774;28;20091;-68
2021/11/16 19:16:53;;;;;;;28.85;14.15;;;;;;;5.24;96.55;101991.16;10136493;28;20493;-68
2021/11/16 19:21:53;;;;;;;31.40;15.50;;;;;;;5.21;97.89;101997.06;10152294;28;20070;-68
2021/11/16 19:26:55;;;;;;;29.25;14.77;;;;;;;5.18;98.58;102000.28;10150830;28;20100;-67
2021/11/16 19:31:55;;;;;;;29.42;15.52;;;;;;;5.13;99.96;101989.38;10147882;28;20097;-68
2021/11/16 19:37:08;;;;;;;32.17;15.55;;;;;;;5.03;100.00;101983.78;10152635;28;20464;-68
2021/11/16 19:42:05;;;;;;;28.98;13.88;;;;;;;4.93;100.00;101983.66;10167868;28;20066;-67
2021/11/16 19:47:02;;;;;;;31.40;14.75;;;;;;;4.98;100.00;101975.59;10153804;28;20458;-68
2021/11/16 19:51:59;;;;;;;24.90;11.32;;;;;;;5.05;100.00;101979.75;10158969;28;20093;-68
2021/11/16 19:56:55;;;;;;;24.15;12.40;;;;;;;4.93;100.00;101983.66;10162475;28;20107;-68
2021/11/16 20:01:52;;;;;;;26.98;11.05;;;;;;;4.97;100.00;101974.78;10125303;28;20042;-68
2021/11/16 20:06:49;;;;;;;26.10;12.02;;;;;;;5.01;100.00;101975.94;10153130;28;20077;-68
2021/11/16 20:11:49;;;;;;;25.52;11.38;;;;;;;5.00;100.00;101963.44;10150038;28;20042;-68
2021/11/16 20:16:46;;;;;;;22.65;10.65;;;;;;;4.95;100.00;101959.84;10141073;28;20066;-67
2021/11/16 20:21:54;;;;;;;26.15;11.48;;;;;;;4.94;100.00;101969.03;10144861;28;20120;-67
2021/11/16 20:26:52;;;;;;;23.67;11.20;;;;;;;5.01;100.00;101953.41;10162228;28;20092;-67
2021/11/16 20:31:51;;;;;;;25.00;10.48;;;;;;;5.01;100.00;101953.41;10166612;28;20129;-68
2021/11/16 20:36:51;;;;;;;23.90;11.07;;;;;;;5.06;100.00;101939.94;10158778;28;20046;-68
2021/11/16 21:02:13;;;;;;;27.10;10.93;;;;;;;4.91;100.00;101942.44;10160354;28;20074;-67
2021/11/16 21:07:10;;;;;;;23.15;9.82;;;;;;;4.98;100.00;101932.22;10160028;28;20518;-67
2021/11/16 21:12:06;;;;;;;23.63;9.73;;;;;;;4.94;100.00;101925.66;10185742;28;20104;-68
2021/11/16 21:17:06;;;;;;;21.40;9.98;;;;;;;4.93;100.00;101924.03;10146366;28;20045;-68
2021/11/16 21:22:05;;;;;;;23.85;12.38;;;;;;;5.01;100.00;101920.88;10152421;28;20042;-68
2021/11/16 21:27:02;;;;;;;21.33;9.77;;;;;;;4.83;100.00;101933.66;10166384;28;20500;-68
2021/11/16 21:31:59;;;;;;;23.85;12.20;;;;;;;4.88;100.00;101926.69;10152404;28;20081;-68
2021/11/16 21:36:56;;;;;;;20.63;9.95;;;;;;;4.87;100.00;101915.00;10168826;28;20042;-68
2021/11/16 21:41:53;;;;;;;25.38;10.82;;;;;;;4.87;100.00;101909.56;10162296;28;20079;-68
2021/11/16 21:46:49;;;;;;;21.85;9.75;;;;;;;4.79;100.00;101908.13;10152057;28;20066;-68
2021/11/16 21:51:47;;;;;;;17.80;8.77;;;;;;;4.84;100.00;101905.47;10167193;28;20052;-68
2021/11/16 21:56:45;;;;;;;20.00;8.95;;;;;;;4.89;99.21;101909.34;10169085;28;20045;-68
2021/11/16 22:01:44;;;;;;;18.80;8.60;;;;;;;4.90;99.51;101895.53;10153812;28;20042;-68
2021/11/16 22:06:41;;;;;;;20.42;9.23;;;;;;;4.84;99.55;101894.63;10160076;28;20508;-68
2021/11/16 22:16:48;;;;;;;20.20;8.40;;;;;;;4.79;98.63;101891.88;10133597;28;20082;-67
2021/11/16 22:21:45;;;;;;;17.65;7.18;;;;;;;4.83;99.10;101890.31;10158985;28;20045;-68
2021/11/16 22:26:42;;;;;;;15.40;7.22;;;;;;;4.82;99.93;101885.94;10153953;28;20069;-68
2021/11/16 22:31:44;;;;;;;24.40;9.55;;;;;;;4.89;99.46;101884.94;10166973;28;20513;-68
2021/11/16 22:36:41;;;;;;;21.30;8.80;;;;;;;4.83;98.69;101865.91;10160719;28;20042;-68
2021/11/16 22:41:40;;;;;;;19.52;7.85;;;;;;;4.77;100.00;101875.03;10157291;28;20101;-68
2021/11/16 22:46:37;;;;;;;17.45;8.32;;;;;;;4.85;100.00;101869.19;10158046;28;20470;-67
2021/11/16 22:51:35;;;;;;;19.27;8.80;;;;;;;4.76;99.86;101864.47;10171978;28;20057;-68
2021/11/16 22:56:31;;;;;;;19.05;9.15;;;;;;;4.67;100.00;101861.34;10145560;28;20034;-68
